M.y. Libra Star — 3ALV — position and weather

sailwx.info

Track history (hours):
 
Tides and Currents Weather Stations Pressure Air Temp Water Temp Dewpoint Dewpoint Depression Visibility Wind Speed Wind Dir Waves Ship Positions

M.y. Libra Star

Last reported at 2014-Sep-03 00:30 UTC. Time now 2014-Sep-03 02:11 UTC.
Position N 44°19' E 009°13'.

Length 40 m; draft 3 m.

Type: Pleasure craft. MMSI: 254450000.

Date/timePositionNaut miles runAvg speedWind from/ knotsBaromVisibWave heightAir tempDewpointWater temp
2014-Sep-03 00:30N 44°19' E 009°13'0 0.0
2014-Sep-02 23:21N 44°19' E 009°13'0 0.0
2014-Sep-02 22:27N 44°19' E 009°13'0 0.0
2014-Sep-02 19:33N 44°19' E 009°13'0 0.0
2014-Sep-02 15:24N 44°19' E 009°13'19 9.4
2014-Sep-02 13:22N 44°09' E 009°36'0 0.4
2014-Sep-02 12:27N 44°09' E 009°36'5 5.7
2014-Sep-02 11:33N 44°05' E 009°41'3 6.9
2014-Sep-02 11:05N 44°05' E 009°45'4 7.3
2014-Sep-02 10:33N 44°03' E 009°49'1312.8
2014-Sep-02 09:33N 43°55' E 010°04'8 8.2
2014-Sep-02 08:33N 43°52' E 010°14'0 0.0
2014-Sep-02 07:33N 43°52' E 010°14'0 0.0
2014-Sep-02 06:33N 43°52' E 010°14'0 0.0
2014-Sep-02 05:33N 43°52' E 010°14'0 0.0
2014-Sep-02 04:33N 43°52' E 010°14'0 0.0
2014-Sep-02 03:33N 43°52' E 010°14'0 0.0
2014-Sep-02 02:33N 43°52' E 010°14'0 0.0
2014-Sep-02 01:33N 43°52' E 010°14'0 0.0
2014-Sep-02 00:30N 43°52' E 010°14'0 0.0
2014-Sep-01 23:33N 43°52' E 010°14'0 0.0
2014-Sep-01 22:33N 43°52' E 010°14'0 0.0
2014-Sep-01 21:33N 43°52' E 010°14'0 0.0
2014-Sep-01 20:33N 43°52' E 010°14'0 0.0
2014-Sep-01 19:33N 43°52' E 010°14'0 0.0
2014-Sep-01 18:30N 43°52' E 010°14'0 0.0
2014-Sep-01 17:27N 43°52' E 010°14'1 1.2
2014-Sep-01 16:33N 43°51' E 010°13'0116.7
2014-Sep-01 16:33N 43°52' E 010°14'1 0.9
2014-Sep-01 15:33N 43°52' E 010°13'1 1.3
2014-Sep-01 14:33N 43°51' E 010°13'1 0.9
2014-Sep-01 13:31N 43°52' E 010°14'0 0.3
2014-Sep-01 13:20N 43°52' E 010°14'1 1.8
2014-Sep-01 12:33N 43°53' E 010°13'8 8.2
2014-Sep-01 11:33N 43°59' E 010°05'1110.5
2014-Sep-01 10:33N 44°04' E 009°52'1 0.8
2014-Sep-01 09:33N 44°03' E 009°51'0 0.1
2014-Sep-01 09:10N 44°03' E 009°51'0 0.1
2014-Sep-01 08:33N 44°03' E 009°51'0 0.5
2014-Sep-01 08:33N 44°03' E 009°51'0 0.0
2014-Sep-01 07:33N 44°03' E 009°51'0 0.5
2014-Sep-01 07:33N 44°03' E 009°51'0 0.0
2014-Sep-01 06:33N 44°03' E 009°51'0 0.3
2014-Sep-01 06:30N 44°03' E 009°50'0 0.0
2014-Sep-01 05:33N 44°03' E 009°51'0 0.0
2014-Sep-01 04:33N 44°03' E 009°51'0 0.0
2014-Sep-01 03:33N 44°03' E 009°51'8 8.2
2014-Sep-01 02:34N 43°57' E 009°58'1313.3
2014-Sep-01 01:33N 43°44' E 010°04'1414.0
2014-Sep-01 00:33N 43°30' E 010°05'1413.6
2014-Aug-31 23:32N 43°19' E 010°16'241 9.6
2014-Aug-30 22:24N 40°34' E 014°12'2 2.4
2014-Aug-30 21:30N 40°33' E 014°15'6 0.8
2014-Aug-30 14:18N 40°35' E 014°22'0 0.0
2014-Aug-30 13:30N 40°35' E 014°22'0 0.0
2014-Aug-30 12:30N 40°35' E 014°22'0 0.0
2014-Aug-30 11:24N 40°35' E 014°22'6 0.4
2014-Aug-29 21:17N 40°33' E 014°15'1 0.0
2014-Aug-28 12:14N 40°33' E 014°14'0 0.0
2014-Aug-28 11:28N 40°33' E 014°14'0 0.0
2014-Aug-28 10:31N 40°33' E 014°14'0 0.0
2014-Aug-28 08:10N 40°33' E 014°14'0 0.0
2014-Aug-28 07:29N 40°33' E 014°14'0 0.0
2014-Aug-27 18:20N 40°33' E 014°14'0 0.0
2014-Aug-27 17:28N 40°33' E 014°14'0 0.0
2014-Aug-27 16:27N 40°33' E 014°14'4 2.2
2014-Aug-27 14:28N 40°34' E 014°20'  
Track history (hours):
 
Tides and Currents Weather Stations Pressure Air Temp Water Temp Dewpoint Dewpoint Depression Visibility Wind Speed Wind Dir Waves Ship Positions

M.y. Libra Star

Last reported at 2014-Sep-03 00:30 UTC. Time now 2014-Sep-03 02:11 UTC.
Position N 44°19' E 009°13'.

Length 40 m; draft 3 m.

Type: Pleasure craft. MMSI: 254450000.

Date/timePositionNaut miles runAvg speedWind from/ knotsBaromVisibWave heightAir tempDewpointWater temp
2014-Sep-03 00:30N 44°19' E 009°13'0 0.0
2014-Sep-02 23:21N 44°19' E 009°13'0 0.0
2014-Sep-02 22:27N 44°19' E 009°13'0 0.0
2014-Sep-02 19:33N 44°19' E 009°13'0 0.0
2014-Sep-02 15:24N 44°19' E 009°13'19 9.4
2014-Sep-02 13:22N 44°09' E 009°36'0 0.4
2014-Sep-02 12:27N 44°09' E 009°36'5 5.7
2014-Sep-02 11:33N 44°05' E 009°41'3 6.9
2014-Sep-02 11:05N 44°05' E 009°45'4 7.3
2014-Sep-02 10:33N 44°03' E 009°49'1312.8
2014-Sep-02 09:33N 43°55' E 010°04'8 8.2
2014-Sep-02 08:33N 43°52' E 010°14'0 0.0
2014-Sep-02 07:33N 43°52' E 010°14'0 0.0
2014-Sep-02 06:33N 43°52' E 010°14'0 0.0
2014-Sep-02 05:33N 43°52' E 010°14'0 0.0
2014-Sep-02 04:33N 43°52' E 010°14'0 0.0
2014-Sep-02 03:33N 43°52' E 010°14'0 0.0
2014-Sep-02 02:33N 43°52' E 010°14'0 0.0
2014-Sep-02 01:33N 43°52' E 010°14'0 0.0
2014-Sep-02 00:30N 43°52' E 010°14'0 0.0
2014-Sep-01 23:33N 43°52' E 010°14'0 0.0
2014-Sep-01 22:33N 43°52' E 010°14'0 0.0
2014-Sep-01 21:33N 43°52' E 010°14'0 0.0
2014-Sep-01 20:33N 43°52' E 010°14'0 0.0
2014-Sep-01 19:33N 43°52' E 010°14'0 0.0
2014-Sep-01 18:30N 43°52' E 010°14'0 0.0
2014-Sep-01 17:27N 43°52' E 010°14'1 1.2
2014-Sep-01 16:33N 43°51' E 010°13'0116.7
2014-Sep-01 16:33N 43°52' E 010°14'1 0.9
2014-Sep-01 15:33N 43°52' E 010°13'1 1.3
2014-Sep-01 14:33N 43°51' E 010°13'1 0.9
2014-Sep-01 13:31N 43°52' E 010°14'0 0.3
2014-Sep-01 13:20N 43°52' E 010°14'1 1.8
2014-Sep-01 12:33N 43°53' E 010°13'8 8.2
2014-Sep-01 11:33N 43°59' E 010°05'1110.5
2014-Sep-01 10:33N 44°04' E 009°52'1 0.8
2014-Sep-01 09:33N 44°03' E 009°51'0 0.1
2014-Sep-01 09:10N 44°03' E 009°51'0 0.1
2014-Sep-01 08:33N 44°03' E 009°51'0 0.5
2014-Sep-01 08:33N 44°03' E 009°51'0 0.0
2014-Sep-01 07:33N 44°03' E 009°51'0 0.5
2014-Sep-01 07:33N 44°03' E 009°51'0 0.0
2014-Sep-01 06:33N 44°03' E 009°51'0 0.3
2014-Sep-01 06:30N 44°03' E 009°50'0 0.0
2014-Sep-01 05:33N 44°03' E 009°51'0 0.0
2014-Sep-01 04:33N 44°03' E 009°51'0 0.0
2014-Sep-01 03:33N 44°03' E 009°51'8 8.2
2014-Sep-01 02:34N 43°57' E 009°58'1313.3
2014-Sep-01 01:33N 43°44' E 010°04'1414.0
2014-Sep-01 00:33N 43°30' E 010°05'1413.6
2014-Aug-31 23:32N 43°19' E 010°16'241 9.6
2014-Aug-30 22:24N 40°34' E 014°12'2 2.4
2014-Aug-30 21:30N 40°33' E 014°15'6 0.8
2014-Aug-30 14:18N 40°35' E 014°22'0 0.0
2014-Aug-30 13:30N 40°35' E 014°22'0 0.0
2014-Aug-30 12:30N 40°35' E 014°22'0 0.0
2014-Aug-30 11:24N 40°35' E 014°22'6 0.4
2014-Aug-29 21:17N 40°33' E 014°15'1 0.0
2014-Aug-28 12:14N 40°33' E 014°14'0 0.0
2014-Aug-28 11:28N 40°33' E 014°14'0 0.0
2014-Aug-28 10:31N 40°33' E 014°14'0 0.0
2014-Aug-28 08:10N 40°33' E 014°14'0 0.0
2014-Aug-28 07:29N 40°33' E 014°14'0 0.0
2014-Aug-27 18:20N 40°33' E 014°14'0 0.0
2014-Aug-27 17:28N 40°33' E 014°14'0 0.0
2014-Aug-27 16:27N 40°33' E 014°14'4 2.2
2014-Aug-27 14:28N 40°34' E 014°20'  

Dump ship's entire track history